Time;durP1;ratioP1;P1;durP2;ratioP2;P2;SDS_P1;SDS_P2;PMS_P1;PMS_P2;Temp;Humidity;BMP_temperature;BMP_pressure;BME280_temperature;BME280_humidity;BME280_pressure;Samples;Min_cycle;Max_cycle;Signal;HPM_P1;HPM_P2
2021/11/18 07:24:12;;;;;;;;;36.25;33.25;;;;;7.08;68.87;102808.91;5938925;23;46480;-95
2021/11/18 07:26:38;;;;;;;;;37.75;34.75;;;;;7.07;68.88;102804.44;4941471;28;45772;-83
2021/11/18 07:29:07;;;;;;;;;31.50;27.25;;;;;7.16;69.12;102814.84;4931950;28;46099;-82
2021/11/18 07:31:34;;;;;;;;;35.00;34.00;;;;;7.14;69.10;102801.63;4929775;28;45461;-81
2021/11/18 07:34:00;;;;;;;;;42.75;34.00;;;;;7.12;68.97;102791.81;4931081;28;45435;-82
2021/11/18 07:36:25;;;;;;;;;37.50;34.25;;;;;7.18;69.02;102794.06;4932616;28;45356;-82
2021/11/18 07:38:50;;;;;;;;;39.25;32.00;;;;;7.25;69.49;102802.63;4931391;28;46573;-82
2021/11/18 07:41:16;;;;;;;;;35.50;34.00;;;;;7.33;69.56;102800.72;4929890;28;45547;-82
2021/11/18 07:43:45;;;;;;;;;44.00;38.25;;;;;7.38;68.93;102798.53;4937250;28;45593;-82
2021/11/18 07:46:13;;;;;;;;;56.50;41.00;;;;;7.43;69.12;102806.78;4930850;28;45538;-82
2021/11/18 07:48:39;;;;;;;;;49.00;42.50;;;;;7.45;68.79;102805.22;4933797;28;45378;-82
2021/11/18 07:51:05;;;;;;;;;52.75;42.75;;;;;7.52;68.57;102798.88;4947577;28;45350;-83
2021/11/18 07:53:31;;;;;;;;;45.50;38.25;;;;;7.52;68.32;102791.97;4937822;28;45374;-83
2021/11/18 07:55:57;;;;;;;;;55.25;44.00;;;;;7.58;68.51;102800.34;4933512;28;45527;-84
2021/11/18 07:58:22;;;;;;;;;47.75;41.25;;;;;7.60;69.49;102797.88;4933595;28;45564;-82
2021/11/18 08:00:49;;;;;;;;;47.00;39.25;;;;;7.65;69.53;102812.28;4936189;28;47111;-82
2021/11/18 08:03:15;;;;;;;;;38.25;36.75;;;;;7.69;69.45;102813.47;4923265;28;45646;-81
2021/11/18 08:05:42;;;;;;;;;50.25;41.50;;;;;7.69;69.38;102805.63;4930393;28;45462;-82
2021/11/18 08:08:07;;;;;;;;;43.25;40.25;;;;;7.75;69.04;102820.97;4931072;28;46755;-82
2021/11/18 08:10:33;;;;;;;;;55.25;44.00;;;;;7.87;69.48;102815.91;4927312;28;45355;-82
2021/11/18 08:13:00;;;;;;;;;53.75;43.75;;;;;7.82;68.58;102803.34;4916449;28;46592;-83
2021/11/18 08:15:26;;;;;;;;;46.25;40.75;;;;;7.98;68.68;102822.13;4935320;28;45529;-83
2021/11/18 08:17:53;;;;;;;;;51.75;41.00;;;;;8.01;68.80;102815.47;4927637;28;47047;-83
2021/11/18 08:20:18;;;;;;;;;53.00;43.00;;;;;8.04;69.17;102807.88;4929768;28;45407;-83
2021/11/18 08:22:44;;;;;;;;;49.00;40.50;;;;;8.10;69.14;102812.75;4927636;28;45364;-83
2021/11/18 08:25:11;;;;;;;;;54.50;44.00;;;;;8.15;68.93;102814.06;4931381;28;45493;-83
2021/11/18 08:27:39;;;;;;;;;54.00;41.75;;;;;8.23;68.73;102819.06;4931860;28;46349;-83
2021/11/18 08:30:08;;;;;;;;;53.75;42.50;;;;;8.32;69.19;102824.22;4932583;28;45502;-83
2021/11/18 08:32:34;;;;;;;;;59.00;48.25;;;;;8.34;69.12;102820.03;4932411;28;45739;-84
2021/11/18 08:34:59;;;;;;;;;60.75;47.75;;;;;8.41;68.94;102816.22;4933189;28;45713;-84
2021/11/18 08:37:25;;;;;;;;;59.75;47.00;;;;;8.46;68.76;102826.31;4934578;28;51857;-84
2021/11/18 08:39:50;;;;;;;;;58.00;43.50;;;;;8.49;69.25;102809.97;4934215;28;45466;-83
2021/11/18 08:42:18;;;;;;;;;59.75;47.50;;;;;8.60;68.88;102831.91;4926638;28;46125;-84
2021/11/18 08:44:44;;;;;;;;;58.25;46.75;;;;;8.66;68.77;102837.66;4936303;28;46076;-84
2021/11/18 08:47:11;;;;;;;;;62.00;49.00;;;;;8.75;68.82;102840.16;4932627;28;45610;-83
2021/11/18 08:49:38;;;;;;;;;58.25;46.50;;;;;8.78;68.46;102836.91;4934391;28;45502;-83
2021/11/18 08:52:08;;;;;;;;;45.50;40.00;;;;;8.90;68.65;102845.81;4928831;28;45594;-83
2021/11/18 08:54:36;;;;;;;;;54.50;39.75;;;;;8.93;68.37;102832.06;4931179;28;45531;-86
2021/11/18 08:57:03;;;;;;;;;57.00;46.50;;;;;9.07;68.26;102843.72;4936219;28;45910;-87
2021/11/18 08:59:29;;;;;;;;;58.75;46.50;;;;;9.08;68.11;102832.47;4923503;28;45593;-86
2021/11/18 09:01:58;;;;;;;;;48.75;40.25;;;;;9.21;67.84;102843.97;4929457;28;45388;-87
2021/11/18 09:04:25;;;;;;;;;49.75;41.75;;;;;9.27;68.15;102842.81;4926588;28;45622;-87
2021/11/18 09:06:52;;;;;;;;;54.25;41.50;;;;;9.27;68.03;102826.16;4915824;28;47180;-87
2021/11/18 09:09:23;;;;;;;;;53.00;44.00;;;;;9.37;68.08;102839.25;4940375;28;45451;-88
2021/11/18 09:11:50;;;;;;;;;54.25;42.75;;;;;9.46;68.09;102851.28;4919737;28;45867;-87
2021/11/18 09:14:17;;;;;;;;;60.00;45.25;;;;;9.51;68.03;102852.59;4919352;28;45613;-87
2021/11/18 09:16:43;;;;;;;;;59.75;47.25;;;;;9.57;67.75;102850.50;4926255;28;45857;-87
2021/11/18 09:19:12;;;;;;;;;57.25;47.25;;;;;9.57;67.19;102849.56;4915999;28;45546;-87
2021/11/18 09:21:40;;;;;;;;;56.00;46.50;;;;;9.60;67.39;102848.13;4910838;28;45590;-87
2021/11/18 09:24:12;;;;;;;;;59.00;47.50;;;;;9.71;67.44;102856.91;4927588;28;45436;-86
2021/11/18 09:26:41;;;;;;;;;54.50;44.75;;;;;9.80;67.13;102861.97;4895250;28;48505;-86
2021/11/18 09:29:07;;;;;;;;;53.75;44.00;;;;;9.87;67.17;102858.16;4908939;28;45377;-86
2021/11/18 09:31:34;;;;;;;;;53.75;46.00;;;;;9.92;67.40;102862.06;4895227;28;45482;-86
2021/11/18 09:34:00;;;;;;;;;56.50;47.00;;;;;10.00;66.97;102865.31;4905966;28;45523;-86
2021/11/18 09:36:28;;;;;;;;;57.25;49.00;;;;;10.10;66.90;102872.22;4906394;28;46177;-85
2021/11/18 09:38:56;;;;;;;;;61.75;47.75;;;;;10.12;66.90;102861.88;4911903;28;45562;-85
2021/11/18 09:41:27;;;;;;;;;54.00;45.50;;;;;10.28;66.92;102869.31;4908010;28;45475;-86
2021/11/18 09:44:04;;;;;;;;;57.00;47.50;;;;;10.35;66.57;102862.81;4909758;28;45543;-85
2021/11/18 09:46:33;;;;;;;;;57.00;46.25;;;;;10.43;66.62;102861.75;4896644;28;47553;-85
2021/11/18 09:49:40;;;;;;;;;54.75;43.50;;;;;10.46;66.29;102858.44;4902157;28;48174;-85
2021/11/18 09:52:35;;;;;;;;;54.00;44.50;;;;;10.48;66.21;102857.78;4887401;28;45564;-87
2021/11/18 09:55:08;;;;;;;;;47.75;40.75;;;;;10.54;66.61;102864.34;4890508;28;45958;-85
2021/11/18 09:58:05;;;;;;;;;53.25;38.75;;;;;10.56;66.17;102860.13;4874740;28;48212;-86
2021/11/18 10:01:02;;;;;;;;;30.50;25.75;;;;;10.64;66.36;102866.00;4893328;28;45584;-85
2021/11/18 10:03:31;;;;;;;;;36.00;31.50;;;;;10.70;65.98;102872.63;4891170;28;46771;-86
2021/11/18 10:06:26;;;;;;;;;35.25;30.00;;;;;10.78;66.53;102877.56;4894120;28;45504;-85
2021/11/18 10:09:09;;;;;;;;;28.00;24.50;;;;;10.83;65.99;102882.41;4891151;28;46403;-85
2021/11/18 10:11:59;;;;;;;;;37.25;32.00;;;;;10.90;65.96;102880.28;4892216;28;46268;-86
2021/11/18 10:14:24;;;;;;;;;35.75;33.25;;;;;10.95;65.77;102881.56;4901781;28;45589;-85
2021/11/18 10:17:08;;;;;;;;;33.50;30.75;;;;;11.01;65.71;102884.63;4901671;28;45437;-85
2021/11/18 10:19:36;;;;;;;;;36.75;33.75;;;;;11.00;65.04;102893.34;4894859;28;45434;-86
2021/11/18 10:22:03;;;;;;;;;44.25;36.25;;;;;11.07;65.34;102892.09;4893795;28;45651;-87
2021/11/18 10:24:34;;;;;;;;;38.50;33.50;;;;;11.13;65.15;102886.41;4896829;28;45478;-84
2021/11/18 10:27:12;;;;;;;;;41.25;33.25;;;;;11.19;64.98;102892.13;4917191;28;45751;-84
2021/11/18 10:30:37;;;;;;;;;38.75;34.50;;;;;11.21;64.95;102887.91;4920920;28;46475;-86
2021/11/18 10:33:08;;;;;;;;;40.00;34.75;;;;;11.22;64.90;102891.44;4894569;29;45557;-85
2021/11/18 10:35:36;;;;;;;;;39.25;35.25;;;;;11.25;64.86;102891.69;4881111;28;45532;-86
2021/11/18 10:38:24;;;;;;;;;36.00;33.50;;;;;11.26;64.94;102888.28;4897612;28;45553;-86
2021/11/18 10:41:00;;;;;;;;;38.25;34.00;;;;;11.31;64.57;102894.81;4897493;28;45639;-85
2021/11/18 10:43:31;;;;;;;;;41.75;35.75;;;;;11.32;64.46;102890.44;4899933;28;45582;-84
2021/11/18 10:46:18;;;;;;;;;37.50;32.25;;;;;11.32;64.53;102895.69;4900405;28;45396;-84
2021/11/18 10:49:02;;;;;;;;;43.25;38.25;;;;;11.32;64.46;102888.72;4906895;28;45802;-86
2021/11/18 10:52:00;;;;;;;;;40.00;32.25;;;;;11.28;64.61;102889.31;4901630;28;45693;-85
2021/11/18 10:54:45;;;;;;;;;41.50;34.25;;;;;11.22;64.96;102883.56;4893373;28;45785;-85
2021/11/18 10:57:30;;;;;;;;;36.50;31.75;;;;;11.14;65.02;102872.44;4891690;28;45508;-83
2021/11/18 11:00:16;;;;;;;;;42.75;35.00;;;;;11.25;65.03;102883.81;4895023;28;45729;-85
2021/11/18 11:02:42;;;;;;;;;39.50;31.75;;;;;11.22;64.50;102886.19;4897916;28;46898;-85
2021/11/18 11:05:36;;;;;;;;;39.75;31.75;;;;;11.26;64.72;102890.91;4917144;28;45429;-85
2021/11/18 11:08:20;;;;;;;;;38.00;33.25;;;;;11.30;64.95;102882.44;4912820;28;45438;-86
2021/11/18 11:10:50;;;;;;;;;31.50;29.00;;;;;11.34;65.36;102881.88;4911029;28;45315;-86
2021/11/18 11:13:53;;;;;;;;;36.00;34.50;;;;;11.60;65.30;102882.94;4912277;28;49792;-85
2021/11/18 11:16:37;;;;;;;;;28.00;28.00;;;;;11.80;65.10;102875.63;4912119;28;45537;-86
2021/11/18 11:19:12;;;;;;;;;30.00;28.75;;;;;11.89;64.60;102863.97;4916275;28;45624;-85
2021/11/18 11:21:48;;;;;;;;;28.25;26.25;;;;;11.90;64.41;102858.84;4906623;28;45494;-85
2021/11/18 11:24:22;;;;;;;;;36.50;28.50;;;;;12.01;63.52;102867.50;4920340;28;45574;-85
2021/11/18 11:27:06;;;;;;;;;33.75;25.75;;;;;12.13;63.70;102877.13;4933078;28;45500;-86
2021/11/18 11:29:40;;;;;;;;;29.75;24.75;;;;;12.30;63.17;102867.84;4933206;28;45414;-84
2021/11/18 11:32:18;;;;;;;;;31.25;29.00;;;;;12.23;62.54;102829.63;4933733;28;45470;-85
2021/11/18 11:35:20;;;;;;;;;30.75;26.25;;;;;12.62;62.74;102863.06;4931734;28;45757;-85
2021/11/18 11:37:54;;;;;;;;;27.75;23.00;;;;;12.65;62.44;102854.47;4927971;28;45813;-87
2021/11/18 11:40:48;;;;;;;;;26.75;26.75;;;;;12.74;61.80;102858.66;4909644;28;45526;-85
2021/11/18 11:43:25;;;;;;;;;20.00;20.00;;;;;12.89;61.05;102863.16;4914135;28;45470;-84
2021/11/18 11:46:22;;;;;;;;;21.00;18.00;;;;;13.07;62.15;102857.34;4936793;28;46176;-84
2021/11/18 11:49:00;;;;;;;;;22.00;19.50;;;;;13.19;61.98;102860.81;4933050;28;45407;-86
2021/11/18 11:51:56;;;;;;;;;26.00;21.00;;;;;13.31;61.83;102851.94;4932339;28;45673;-84
2021/11/18 11:55:04;;;;;;;;;22.67;21.00;;;;;13.49;60.92;102851.34;4921411;28;45270;-84
2021/11/18 11:58:01;;;;;;;;;20.75;18.00;;;;;13.60;59.99;102839.84;4935500;28;49973;-85
2021/11/18 12:00:39;;;;;;;;;21.33;18.67;;;;;13.72;60.40;102849.38;4933939;28;46677;-86
2021/11/18 12:03:29;;;;;;;;;16.00;12.67;;;;;13.68;59.78;102835.06;4937103;28;45795;-87
2021/11/18 12:06:06;;;;;;;;;15.00;15.00;;;;;13.83;58.88;102845.72;4908414;28;45292;-83
2021/11/18 12:08:41;;;;;;;;;19.67;15.33;;;;;13.88;58.62;102839.81;4933991;28;46342;-84
2021/11/18 12:11:18;;;;;;;;;21.67;15.33;;;;;13.94;59.75;102845.53;4936869;28;45571;-85
2021/11/18 12:13:48;;;;;;;;;19.67;17.00;;;;;14.02;59.49;102830.19;4937344;28;45382;-83
2021/11/18 12:16:26;;;;;;;;;23.00;18.00;;;;;14.15;59.13;102839.78;4923804;28;45513;-84
2021/11/18 12:18:58;;;;;;;;;14.33;14.00;;;;;14.20;58.51;102822.50;4931786;28;47786;-85
2021/11/18 12:21:24;;;;;;;;;18.00;14.00;;;;;14.24;59.01;102828.91;4937659;28;45518;-84
2021/11/18 12:24:11;;;;;;;;;11.33;11.00;;;;;14.26;58.59;102838.75;4930944;28;45527;-86
2021/11/18 12:27:01;;;;;;;;;15.33;15.00;;;;;14.41;59.29;102848.47;4937592;28;45627;-84
2021/11/18 12:29:45;;;;;;;;;14.00;11.33;;;;;14.62;58.95;102838.34;4936933;28;46359;-84
2021/11/18 12:32:10;;;;;;;;;14.00;11.33;;;;;14.80;59.34;102837.66;4915145;28;45583;-83
2021/11/18 12:34:52;;;;;;;;;18.33;14.00;;;;;14.92;59.04;102828.69;4934835;28;45481;-84
2021/11/18 12:37:29;;;;;;;;;13.33;11.00;;;;;15.08;58.27;102839.34;4937970;28;45387;-84
2021/11/18 12:40:13;;;;;;;;;14.67;12.00;;;;;15.16;58.20;102828.31;4939129;28;45922;-84
2021/11/18 12:43:06;;;;;;;;;12.67;10.67;;;;;15.22;57.98;102825.13;4935974;28;45604;-85
2021/11/18 12:45:47;;;;;;;;;12.67;11.67;;;;;15.17;57.52;102823.16;4935152;28;45364;-84
2021/11/18 12:48:14;;;;;;;;;12.33;11.00;;;;;15.04;57.79;102826.78;4931588;28;48397;-90
2021/11/18 12:50:49;;;;;;;;;13.67;12.00;;;;;14.87;58.12;102823.09;4942842;28;46941;-86
2021/11/18 12:53:18;;;;;;;;;10.67;10.67;;;;;14.72;57.87;102817.75;4920339;28;45499;-84
2021/11/18 12:56:05;;;;;;;;;13.67;12.00;;;;;14.62;58.09;102814.53;4937736;28;45515;-86
2021/11/18 12:58:42;;;;;;;;;19.33;12.33;;;;;14.52;58.17;102805.13;4940688;28;45487;-86
2021/11/18 13:01:20;;;;;;;;;17.00;10.33;;;;;14.45;58.45;102810.88;4934653;28;46163;-86
2021/11/18 13:03:49;;;;;;;;;12.67;10.00;;;;;14.41;58.37;102812.38;4932162;28;45536;-84
2021/11/18 13:06:30;;;;;;;;;15.67;12.00;;;;;14.36;58.65;102805.91;4934881;28;45490;-83
2021/11/18 13:09:16;;;;;;;;;11.67;10.00;;;;;14.30;58.95;102805.53;4938270;28;45470;-85
2021/11/18 13:11:44;;;;;;;;;9.00;7.67;;;;;14.20;58.61;102793.44;4924796;28;47452;-86
2021/11/18 13:14:10;;;;;;;;;15.67;10.67;;;;;14.15;58.80;102798.44;4960754;28;46017;-86
2021/11/18 13:16:38;;;;;;;;;12.00;10.00;;;;;14.07;59.13;102792.66;4927978;28;45466;-85
2021/11/18 13:19:32;;;;;;;;;9.33;7.00;;;;;13.94;59.26;102783.03;4940148;28;45567;-86
2021/11/18 13:22:22;;;;;;;;;11.67;10.67;;;;;13.91;59.61;102792.50;4926555;28;47534;-87
2021/11/18 13:25:07;;;;;;;;;14.67;13.00;;;;;13.84;59.14;102793.81;4947148;28;44884;-87
2021/11/18 13:27:50;;;;;;;;;11.00;10.00;;;;;13.78;59.70;102782.88;4927488;28;45526;-87
2021/11/18 13:30:32;;;;;;;;;12.00;12.00;;;;;13.71;59.95;102782.47;5110162;23;45501;-90
2021/11/18 13:33:21;;;;;;;;;11.67;9.33;;;;;13.65;60.03;102775.88;4930611;28;47181;-86
2021/11/18 13:36:09;;;;;;;;;11.00;9.67;;;;;13.59;60.49;102776.41;4839422;29;45512;-86
2021/11/18 13:38:48;;;;;;;;;8.33;8.00;;;;;13.48;60.05;102771.28;4857562;29;44863;-86
2021/11/18 13:41:17;;;;;;;;;9.33;7.33;;;;;13.51;60.20;102775.84;4856186;29;44969;-86
2021/11/18 13:43:44;;;;;;;;;10.33;8.67;;;;;13.47;60.86;102777.41;4840525;29;47273;-86
2021/11/18 13:46:12;;;;;;;;;8.00;6.33;;;;;13.42;60.01;102768.25;4835690;29;45369;-86
2021/11/18 13:48:46;;;;;;;;;7.33;6.67;;;;;13.45;60.13;102775.47;4849378;29;45642;-86
2021/11/18 13:51:13;;;;;;;;;11.00;6.33;;;;;13.44;59.08;102773.63;4842785;29;45601;-86
2021/11/18 13:53:47;;;;;;;;;7.33;5.00;;;;;13.38;59.28;102764.50;4848311;29;45392;-86
2021/11/18 13:56:49;;;;;;;;;9.33;6.00;;;;;13.46;60.10;102777.28;4839449;29;45393;-85
2021/11/18 13:59:26;;;;;;;;;9.00;4.00;;;;;13.41;59.83;102772.63;4825770;29;45748;-85
2021/11/18 14:02:12;;;;;;;;;7.33;5.00;;;;;13.40;59.42;102773.41;4837384;29;45567;-83
2021/11/18 14:04:50;;;;;;;;;7.00;7.00;;;;;13.43;59.33;102767.44;4839033;29;46650;-84
2021/11/18 14:07:16;;;;;;;;;8.67;6.67;;;;;13.47;58.83;102769.47;4837465;29;45499;-84
2021/11/18 14:10:05;;;;;;;;;6.00;6.00;;;;;13.41;57.67;102759.44;4832319;29;45668;-84
2021/11/18 14:12:34;;;;;;;;;12.00;7.33;;;;;13.55;58.46;102771.72;4856306;28;45992;-85
2021/11/18 14:15:17;;;;;;;;;7.00;7.00;;;;;13.58;58.48;102770.19;4933190;28;45530;-84
2021/11/18 14:17:58;;;;;;;;;7.00;5.67;;;;;13.61;58.72;102778.31;4934868;28;45533;-84
2021/11/18 14:20:43;;;;;;;;;6.00;5.00;;;;;13.60;59.10;102767.69;4924367;28;45816;-85
2021/11/18 14:23:16;;;;;;;;;7.67;4.00;;;;;13.66;59.21;102777.72;4917996;28;45438;-85
2021/11/18 14:25:43;;;;;;;;;4.33;4.33;;;;;13.69;58.63;102777.91;4927630;28;46670;-84
2021/11/18 14:28:15;;;;;;;;;10.33;5.33;;;;;13.71;58.74;102768.38;4927078;28;45407;-85
2021/11/18 14:30:48;;;;;;;;;10.00;4.00;;;;;13.69;57.28;102764.72;4902952;28;45679;-84
2021/11/18 14:33:19;;;;;;;;;5.33;3.67;;;;;13.71;57.87;102773.66;4928857;28;45502;-84
2021/11/18 14:35:54;;;;;;;;;5.00;5.00;;;;;13.67;58.46;102777.81;4927950;28;45697;-84
2021/11/18 14:38:46;;;;;;;;;4.00;4.00;;;;;13.59;58.86;102771.13;4934304;28;45554;-84
2021/11/18 14:41:27;;;;;;;;;6.00;4.67;;;;;13.55;57.93;102779.63;4931560;28;45467;-85
2021/11/18 14:44:12;;;;;;;;;4.67;4.33;;;;;13.47;59.06;102779.13;4926460;28;45344;-85
2021/11/18 14:47:00;;;;;;;;;6.67;4.33;;;;;13.26;58.69;102763.69;4921955;28;45290;-85
2021/11/18 14:49:35;;;;;;;;;5.33;4.33;;;;;13.29;58.04;102778.00;4913859;28;45509;-85
2021/11/18 14:52:31;;;;;;;;;5.33;4.33;;;;;13.22;59.37;102781.00;4937176;28;45051;-84
2021/11/18 14:55:29;;;;;;;;;5.00;5.00;;;;;13.14;58.96;102784.88;4918704;28;45459;-85
2021/11/18 14:58:19;;;;;;;;;4.00;3.00;;;;;13.04;60.03;102767.53;4931512;28;45613;-85
2021/11/18 15:00:44;;;;;;;;;9.67;5.67;;;;;13.05;60.25;102775.53;4920441;28;45410;-85
2021/11/18 15:03:14;;;;;;;;;6.33;5.00;;;;;12.99;59.96;102776.84;4942322;28;45565;-85
2021/11/18 15:05:40;;;;;;;;;5.67;5.00;;;;;12.89;60.26;102778.81;4937099;28;45497;-85
2021/11/18 15:08:06;;;;;;;;;7.67;4.00;;;;;12.83;59.76;102773.16;4927561;28;46848;-84
2021/11/18 15:10:32;;;;;;;;;9.00;6.00;;;;;12.85;60.13;102780.34;4941850;28;45524;-83
2021/11/18 15:12:57;;;;;;;;;4.33;4.00;;;;;12.79;60.89;102776.38;4932574;28;45902;-84
2021/11/18 15:15:28;;;;;;;;;6.33;6.33;;;;;12.79;61.60;102776.38;4935736;28;45288;-84
2021/11/18 15:17:56;;;;;;;;;6.67;4.67;;;;;12.74;61.25;102776.97;4928852;28;45934;-84
2021/11/18 15:20:24;;;;;;;;;8.33;6.00;;;;;12.71;61.59;102771.47;4932901;28;45648;-85
2021/11/18 15:22:52;;;;;;;;;7.00;6.00;;;;;12.67;61.83;102776.44;4939685;28;45367;-84
2021/11/18 15:25:21;;;;;;;;;6.33;5.00;;;;;12.59;61.40;102765.38;4931629;28;45551;-85
2021/11/18 15:27:48;;;;;;;;;7.33;5.67;;;;;12.60;61.84;102780.38;4934538;28;46979;-84
2021/11/18 15:30:18;;;;;;;;;8.67;5.67;;;;;12.53;61.86;102768.47;4940947;28;45256;-84
2021/11/18 15:32:44;;;;;;;;;5.67;5.00;;;;;12.52;61.71;102779.84;4931516;28;45500;-84
2021/11/18 15:35:14;;;;;;;;;8.33;6.00;;;;;12.52;62.00;102782.47;4918919;28;45707;-84
2021/11/18 15:37:41;;;;;;;;;12.33;7.33;;;;;12.37;62.35;102764.75;4924381;28;45913;-84
2021/11/18 15:40:07;;;;;;;;;8.33;6.00;;;;;12.43;62.56;102776.53;4915419;28;45518;-84
2021/11/18 15:42:34;;;;;;;;;12.33;5.67;;;;;12.35;62.52;102769.00;4927829;28;45634;-85
2021/11/18 15:44:59;;;;;;;;;8.00;5.00;;;;;12.35;62.17;102782.19;4932745;28;45507;-85
2021/11/18 15:47:25;;;;;;;;;7.67;5.33;;;;;12.33;62.67;102783.81;4927760;28;46097;-85
2021/11/18 15:49:52;;;;;;;;;6.00;6.00;;;;;12.34;62.54;102796.19;4929525;28;45447;-85
2021/11/18 15:52:24;;;;;;;;;7.33;5.67;;;;;12.26;62.53;102793.00;4927140;28;45965;-86
2021/11/18 15:54:51;;;;;;;;;8.67;5.00;;;;;12.24;62.85;102797.22;4915222;28;45492;-85
2021/11/18 15:57:17;;;;;;;;;7.67;4.33;;;;;12.17;63.16;102792.31;4919820;28;46484;-85
2021/11/18 15:59:44;;;;;;;;;7.00;5.00;;;;;12.15;63.04;102792.22;4932794;28;45503;-86
2021/11/18 16:02:14;;;;;;;;;9.67;6.00;;;;;12.13;63.21;102806.03;4923584;28;46032;-85
2021/11/18 16:04:41;;;;;;;;;8.33;8.33;;;;;12.09;63.37;102809.22;4934330;28;45367;-85
2021/11/18 16:07:10;;;;;;;;;8.67;8.33;;;;;12.05;63.42;102797.59;4934453;28;45658;-85
2021/11/18 16:09:38;;;;;;;;;8.67;5.33;;;;;12.03;63.09;102801.81;4934570;28;45434;-84
2021/11/18 16:12:15;;;;;;;;;10.00;9.33;;;;;11.99;63.27;102799.75;4933918;28;45501;-85
2021/11/18 16:14:44;;;;;;;;;7.67;7.67;;;;;11.95;63.18;102806.53;4938878;28;45542;-84
2021/11/18 16:17:14;;;;;;;;;9.00;7.33;;;;;11.89;63.48;102800.81;4931538;28;46029;-85
2021/11/18 16:19:41;;;;;;;;;11.67;8.33;;;;;11.88;63.43;102806.91;4925757;28;45577;-85
2021/11/18 16:22:10;;;;;;;;;12.67;9.00;;;;;11.81;63.38;102790.63;4923188;28;45564;-85
2021/11/18 16:24:36;;;;;;;;;9.00;9.00;;;;;11.76;63.27;102804.25;4934115;28;45332;-84
2021/11/18 16:27:02;;;;;;;;;12.00;9.00;;;;;11.78;63.26;102818.44;4929665;28;50260;-85
2021/11/18 16:29:29;;;;;;;;;9.33;7.67;;;;;11.75;63.15;102811.22;4926455;28;45635;-85
2021/11/18 16:31:59;;;;;;;;;8.67;8.67;;;;;11.71;63.20;102812.72;4933188;28;45553;-85
2021/11/18 16:34:26;;;;;;;;;10.00;8.67;;;;;11.56;63.11;102799.34;4928332;28;45462;-85
2021/11/18 16:36:54;;;;;;;;;12.67;9.00;;;;;11.57;63.40;102806.44;4929374;28;45565;-85
2021/11/18 16:39:21;;;;;;;;;9.00;9.00;;;;;11.56;63.24;102817.78;4925915;28;45649;-85
2021/11/18 16:41:51;;;;;;;;;11.00;10.33;;;;;11.51;63.24;102814.81;4934592;28;45583;-85
2021/11/18 16:44:16;;;;;;;;;9.67;9.00;;;;;11.49;63.31;102813.75;4930330;28;46270;-85
2021/11/18 16:46:43;;;;;;;;;10.67;9.00;;;;;11.50;63.35;102822.56;4927368;28;45573;-85
2021/11/18 16:49:10;;;;;;;;;11.00;10.33;;;;;11.47;63.34;102822.31;4935471;28;45695;-85
2021/11/18 16:51:43;;;;;;;;;17.00;12.00;;;;;11.43;63.50;102823.81;4933880;28;45574;-84
2021/11/18 16:54:10;;;;;;;;;15.67;12.00;;;;;11.38;63.47;102822.56;4916257;28;45435;-85
2021/11/18 16:56:38;;;;;;;;;17.00;15.67;;;;;11.36;63.44;102818.91;4929929;28;54299;-85
2021/11/18 16:59:07;;;;;;;;;16.33;11.33;;;;;11.35;63.56;102819.69;4928891;28;45324;-84
2021/11/18 17:01:38;;;;;;;;;15.67;12.67;;;;;11.28;63.53;102816.63;4929314;28;45440;-85
2021/11/18 17:04:05;;;;;;;;;12.67;10.00;;;;;11.25;63.58;102812.81;4906391;28;45548;-86
2021/11/18 17:06:30;;;;;;;;;17.33;12.67;;;;;11.20;63.65;102808.94;4931027;28;54165;-83
2021/11/18 17:08:59;;;;;;;;;12.67;12.67;;;;;11.20;63.79;102812.47;4931961;28;45468;-84
2021/11/18 17:11:28;;;;;;;;;16.33;13.67;;;;;11.18;63.64;102812.34;4910614;28;45545;-84
2021/11/18 17:13:54;;;;;;;;;20.75;19.50;;;;;11.17;63.47;102821.03;4918388;28;45536;-83
2021/11/18 17:16:20;;;;;;;;;19.00;18.00;;;;;11.15;63.71;102833.16;4923254;28;45586;-85
2021/11/18 17:18:48;;;;;;;;;17.33;17.33;;;;;11.14;63.86;102836.56;4933045;28;45434;-85
2021/11/18 17:21:18;;;;;;;;;21.00;14.00;;;;;11.11;63.71;102841.59;4932826;28;45828;-84
2021/11/18 17:23:45;;;;;;;;;19.33;18.00;;;;;11.02;64.11;102846.16;4910005;28;45652;-84
2021/11/18 17:26:12;;;;;;;;;11.67;11.67;;;;;11.03;63.53;102848.88;4916690;28;46254;-84
2021/11/18 17:28:39;;;;;;;;;16.00;16.00;;;;;10.98;64.04;102841.47;4927419;28;45530;-84
2021/11/18 17:31:08;;;;;;;;;20.67;15.33;;;;;10.94;64.08;102841.22;4937599;28;45512;-83
2021/11/18 17:33:35;;;;;;;;;19.50;17.50;;;;;10.91;64.25;102846.22;4940051;28;45655;-83
2021/11/18 17:36:13;;;;;;;;;23.50;19.75;;;;;10.92;64.24;102861.19;4934337;28;47431;-84
2021/11/18 17:38:41;;;;;;;;;21.50;19.00;;;;;10.90;64.75;102844.38;4932245;28;46453;-84
2021/11/18 17:41:10;;;;;;;;;28.50;22.50;;;;;10.90;64.94;102859.25;4946181;28;45655;-84
2021/11/18 17:43:37;;;;;;;;;34.00;28.75;;;;;10.84;65.13;102852.72;4953983;28;45500;-84
2021/11/18 17:46:07;;;;;;;;;29.00;25.50;;;;;10.86;65.23;102850.19;4952094;28;45549;-84
2021/11/18 17:48:38;;;;;;;;;36.25;31.25;;;;;10.90;65.23;102860.13;4933048;28;45465;-84
2021/11/18 17:51:11;;;;;;;;;39.25;33.00;;;;;10.86;65.09;102857.16;4950279;28;45523;-83
2021/11/18 17:53:38;;;;;;;;;42.75;35.50;;;;;10.90;65.51;102864.50;4952693;28;45598;-83
2021/11/18 17:56:04;;;;;;;;;34.50;32.75;;;;;10.87;65.42;102856.38;4935822;28;46930;-82
2021/11/18 17:58:35;;;;;;;;;34.25;32.50;;;;;10.84;65.10;102857.97;4933961;28;45487;-83
2021/11/18 18:01:06;;;;;;;;;39.50;33.50;;;;;10.87;65.02;102870.44;4935587;28;45545;-83
2021/11/18 18:03:33;;;;;;;;;38.25;33.50;;;;;10.86;65.52;102875.56;4952086;28;45829;-84
2021/11/18 18:06:00;;;;;;;;;38.75;34.75;;;;;10.80;65.54;102863.75;4952525;28;45371;-82
2021/11/18 18:08:25;;;;;;;;;42.00;34.00;;;;;10.81;65.65;102868.22;4951964;28;45521;-84
2021/11/18 18:10:52;;;;;;;;;41.50;36.75;;;;;10.83;65.72;102873.59;4950230;28;45597;-84
2021/11/18 18:13:17;;;;;;;;;39.00;34.50;;;;;10.81;65.72;102876.13;4949825;28;45581;-83
2021/11/18 18:15:45;;;;;;;;;39.50;32.75;;;;;10.80;66.07;102866.38;4937930;28;45953;-85
2021/11/18 18:18:12;;;;;;;;;42.75;36.75;;;;;10.85;65.81;102882.50;4952468;28;45450;-84
2021/11/18 18:20:48;;;;;;;;;36.00;33.00;;;;;10.81;66.08;102873.50;4952527;28;45514;-85
2021/11/18 18:23:13;;;;;;;;;45.50;35.00;;;;;10.84;65.98;102883.31;4950304;28;45589;-84
2021/11/18 18:25:42;;;;;;;;;42.75;36.00;;;;;10.84;65.92;102888.56;4950803;28;45376;-85
2021/11/18 18:28:10;;;;;;;;;44.50;36.75;;;;;10.84;65.94;102897.38;4953833;28;46162;-85
2021/11/18 18:30:44;;;;;;;;;37.75;34.50;;;;;10.78;66.06;102894.25;4952563;28;45375;-85
2021/11/18 18:33:10;;;;;;;;;40.75;33.50;;;;;10.80;66.13;102899.63;4952995;28;45528;-84
2021/11/18 18:35:36;;;;;;;;;43.25;32.25;;;;;10.81;66.21;102904.09;4955459;28;46680;-85
2021/11/18 18:38:03;;;;;;;;;42.50;35.75;;;;;10.78;66.13;102910.03;4950367;28;45265;-85
2021/11/18 18:40:33;;;;;;;;;42.50;32.75;;;;;10.80;66.37;102912.75;4950250;28;45240;-85
2021/11/18 18:42:59;;;;;;;;;40.75;36.75;;;;;10.73;66.12;102900.84;4947638;28;45683;-85
2021/11/18 18:45:26;;;;;;;;;44.75;35.00;;;;;10.78;66.47;102909.09;4950838;28;45757;-85
2021/11/18 18:47:53;;;;;;;;;36.50;33.50;;;;;10.77;66.47;102909.91;4957362;28;45455;-85
2021/11/18 18:50:22;;;;;;;;;42.50;37.25;;;;;10.72;66.61;102893.78;4948745;28;45503;-84
2021/11/18 18:52:49;;;;;;;;;51.00;41.00;;;;;10.75;66.56;102904.50;4948694;28;45496;-85
2021/11/18 18:55:19;;;;;;;;;43.50;33.25;;;;;10.73;66.54;102909.66;4949440;28;46497;-85
2021/11/18 18:57:45;;;;;;;;;39.50;35.25;;;;;10.72;66.54;102915.69;4948692;28;45487;-85
2021/11/18 19:00:28;;;;;;;;;43.25;35.50;;;;;10.69;66.50;102909.28;4952783;28;45855;-85
2021/11/18 19:02:55;;;;;;;;;34.50;31.75;;;;;10.70;66.77;102922.53;4951724;28;45469;-86
2021/11/18 19:05:21;;;;;;;;;51.50;38.75;;;;;10.69;66.47;102918.09;4943287;28;46515;-85